KXNA/XNA METAR and TAF weather

Enter ICAO airport designator
Station Type Date Time Source
KXNA METAR 2021/10/22 18:53 UTC NOAA

KXNA 221853Z 00000KT 10SM CLR 21/07 A3008 RMK AO2 SLP182 T02110067


Station Type Date Time Source
KXNA Decoded METAR 2021/10/22 18:53 UTC NOAA

NORTHWEST ARKANSAS REGIONAL, AR, United States (KXNA) 36-17N 94-18W
Oct 22, 2021 - 02:53 PM EDT / 2021.10.22 1853 UTC
Wind: Calm:0
Visibility: 10 mile(s):0
Sky conditions: clear
Temperature: 70.0 F (21.1 C)
Dew Point: 44.1 F (6.7 C)
Relative Humidity: 39%
Pressure (altimeter): 30.08 in. Hg (1018 hPa)
ob: KXNA 221853Z 00000KT 10SM CLR 21/07 A3008 RMK AO2 SLP182 T02110067
cycle: 19

Station Type Date Time Source
KXNA TAF 2021/10/22 18:22 UTC NOAA

TAF KXNA 221720Z 2218/2318 19005KT P6SM SKC
FM230800 18006KT P6SM -SHRA BKN050 WS020/21040KT
TEMPO 2309/2313 3SM -TSRA BKN040CB
FM231300 18008KT P6SM VCTS BKN050CB
TEMPO 2313/2317 3SM -TSRA BKN040CB

Example: see airport list